createdAt,value
2022-10-17T00:00:48.824Z,3.50
2022-10-17T00:04:18.439Z,1.90
2022-10-17T00:07:55.485Z,2.10
2022-10-17T00:11:45.109Z,2.00
2022-10-17T00:15:27.702Z,1.90
2022-10-17T00:19:17.328Z,3.10
2022-10-17T00:23:07.076Z,2.10
2022-10-17T00:26:59.612Z,2.50
2022-10-17T00:30:49.602Z,1.40
2022-10-17T00:34:39.337Z,1.90
2022-10-17T00:38:28.982Z,2.20
2022-10-17T00:42:27.139Z,1.60
2022-10-17T00:46:19.698Z,1.70
2022-10-17T00:50:09.362Z,1.30
2022-10-17T00:53:59.100Z,1.20
2022-10-17T00:57:48.806Z,1.30
2022-10-17T01:01:28.601Z,1.90
2022-10-17T01:05:18.282Z,1.80
2022-10-17T01:09:07.929Z,1.60
2022-10-17T01:12:55.951Z,1.40
2022-10-17T01:16:45.447Z,1.70
2022-10-17T01:20:47.016Z,1.40
2022-10-17T01:24:33.740Z,1.40
2022-10-17T01:28:34.015Z,1.40
2022-10-17T01:32:26.269Z,1.30
2022-10-17T01:36:31.458Z,1.50
2022-10-17T01:40:17.250Z,1.30
2022-10-17T01:44:15.933Z,1.20
2022-10-17T01:48:08.437Z,1.30
2022-10-17T01:52:00.952Z,1.50
2022-10-17T01:55:59.542Z,1.60
2022-10-17T01:59:54.691Z,2.20
2022-10-17T02:03:47.216Z,1.70
2022-10-17T02:07:36.749Z,1.90
2022-10-17T02:11:31.999Z,1.50
2022-10-17T02:15:33.259Z,1.50
2022-10-17T02:19:28.574Z,1.50
2022-10-17T02:23:26.165Z,1.10
2022-10-17T02:27:25.759Z,1.70
2022-10-17T02:31:24.626Z,1.90
2022-10-17T02:35:17.145Z,1.50
2022-10-17T02:39:07.106Z,1.30
2022-10-17T02:42:56.576Z,1.60
2022-10-17T02:46:39.052Z,1.50
2022-10-17T02:50:26.224Z,1.50
2022-10-17T02:54:17.184Z,1.00
2022-10-17T02:58:18.609Z,1.20
2022-10-17T03:01:51.494Z,1.70
2022-10-17T03:05:42.098Z,1.80
2022-10-17T03:09:24.716Z,1.50
2022-10-17T03:13:14.252Z,1.20
2022-10-17T03:17:03.713Z,1.30
2022-10-17T03:20:53.377Z,1.30
2022-10-17T03:24:42.953Z,1.30
2022-10-17T03:28:02.016Z,1.30
2022-10-17T03:31:47.490Z,1.20
2022-10-17T03:35:37.149Z,2.40
2022-10-17T03:39:26.821Z,1.10
2022-10-17T03:43:16.442Z,1.20
2022-10-17T03:47:08.200Z,1.50
2022-10-17T03:51:01.148Z,1.30
2022-10-17T03:54:49.965Z,1.90
2022-10-17T03:58:39.172Z,1.60
2022-10-17T04:02:28.766Z,1.50
2022-10-17T04:06:07.492Z,1.50
2022-10-17T04:09:57.079Z,2.90
2022-10-17T04:13:46.863Z,1.40
2022-10-17T04:17:32.333Z,1.20
2022-10-17T04:21:24.082Z,1.70
2022-10-17T04:25:14.180Z,1.00
2022-10-17T04:29:03.730Z,1.20
2022-10-17T04:32:53.240Z,1.10
2022-10-17T04:36:42.832Z,1.40
2022-10-17T04:40:32.422Z,2.00
2022-10-17T04:44:21.999Z,1.70
2022-10-17T04:48:11.526Z,1.60
2022-10-17T04:51:52.282Z,1.70
2022-10-17T04:55:41.695Z,0.90
2022-10-17T04:59:24.654Z,1.40
2022-10-17T05:03:14.057Z,2.30
2022-10-17T05:07:07.004Z,2.10
2022-10-17T05:11:09.135Z,1.60
2022-10-17T05:14:47.482Z,1.80
2022-10-17T05:18:36.936Z,2.10
2022-10-17T05:22:07.074Z,1.60
2022-10-17T05:25:39.550Z,1.30
2022-10-17T05:29:29.458Z,2.10
2022-10-17T05:33:19.248Z,2.40
2022-10-17T05:37:09.151Z,1.60
2022-10-17T05:40:58.156Z,1.00
2022-10-17T05:44:40.930Z,1.60
2022-10-17T05:48:29.203Z,2.10
2022-10-17T05:52:18.933Z,1.30
2022-10-17T05:56:07.421Z,1.20
2022-10-17T05:59:57.321Z,2.20
2022-10-17T06:03:47.984Z,2.00
2022-10-17T06:07:30.673Z,2.10
2022-10-17T06:11:10.857Z,1.50
2022-10-17T06:15:00.797Z,2.10
2022-10-17T06:18:50.316Z,1.60
2022-10-17T06:22:33.213Z,1.40
2022-10-17T06:26:22.741Z,1.50
2022-10-17T06:30:04.996Z,2.20
2022-10-17T06:33:31.270Z,2.30
2022-10-17T06:37:06.120Z,1.70
2022-10-17T06:40:55.653Z,1.80
2022-10-17T06:44:45.056Z,1.60
2022-10-17T06:48:40.518Z,2.10
2022-10-17T06:52:30.289Z,1.10
2022-10-17T06:56:23.092Z,2.40
2022-10-17T07:00:19.225Z,1.10
2022-10-17T07:04:08.912Z,1.70
2022-10-17T07:07:58.373Z,1.60
2022-10-17T07:11:50.521Z,1.50
2022-10-17T07:15:39.705Z,2.40
2022-10-17T07:19:29.494Z,3.10
2022-10-17T07:23:09.347Z,2.00
2022-10-17T07:26:47.429Z,1.70
2022-10-17T07:30:37.204Z,1.50
2022-10-17T07:34:27.077Z,1.30
2022-10-17T07:38:16.719Z,1.50
2022-10-17T07:41:59.136Z,1.40
2022-10-17T07:45:39.420Z,2.20
2022-10-17T07:49:28.651Z,1.90
2022-10-17T07:53:18.321Z,2.00
2022-10-17T07:57:07.996Z,1.40
2022-10-17T08:00:57.896Z,1.90
2022-10-17T08:04:47.003Z,1.60
2022-10-17T08:08:16.822Z,1.80
2022-10-17T08:11:44.652Z,1.30
2022-10-17T08:15:34.385Z,2.00
2022-10-17T08:18:56.447Z,1.10
2022-10-17T08:22:46.313Z,1.70
2022-10-17T08:26:39.261Z,1.50
2022-10-17T08:30:32.229Z,1.70
2022-10-17T08:34:16.178Z,1.20
2022-10-17T08:37:59.688Z,1.90
2022-10-17T08:45:24.044Z,1.70
2022-10-17T08:49:10.036Z,2.20
2022-10-17T08:52:57.716Z,2.00
2022-10-17T08:56:59.965Z,1.60
2022-10-17T09:00:52.670Z,1.60
2022-10-17T09:04:33.701Z,1.60
2022-10-17T09:08:41.098Z,1.90
2022-10-17T09:12:29.953Z,2.30
2022-10-17T09:16:18.321Z,2.00
2022-10-17T09:20:11.026Z,2.80
2022-10-17T09:24:09.402Z,1.20
2022-10-17T09:27:51.973Z,1.10
2022-10-17T09:31:41.572Z,1.30
2022-10-17T09:35:13.631Z,1.30
2022-10-17T09:38:48.666Z,2.70
2022-10-17T09:42:41.142Z,1.00
2022-10-17T09:46:40.126Z,1.20
2022-10-17T09:50:30.219Z,1.10
2022-10-17T09:54:01.272Z,1.20
2022-10-17T09:57:57.606Z,1.10
2022-10-17T10:01:56.607Z,1.30
2022-10-17T10:05:57.671Z,1.40
2022-10-17T10:09:53.222Z,1.30
2022-10-17T10:13:36.825Z,1.70
2022-10-17T10:17:23.716Z,1.80
2022-10-17T10:21:10.675Z,1.30
2022-10-17T10:24:58.812Z,1.70
2022-10-17T10:28:51.083Z,1.10
2022-10-17T10:32:59.490Z,1.30
2022-10-17T10:36:58.116Z,1.20
2022-10-17T10:40:56.976Z,1.30
2022-10-17T10:44:46.647Z,1.00
2022-10-17T10:48:36.110Z,1.30
2022-10-17T10:52:15.378Z,1.30
2022-10-17T10:55:56.980Z,1.60
2022-10-17T11:00:00.291Z,1.60
2022-10-17T11:03:58.161Z,1.20
2022-10-17T11:07:47.755Z,1.60
2022-10-17T11:11:41.850Z,1.20
2022-10-17T11:15:34.054Z,1.20
2022-10-17T11:19:29.608Z,1.20
2022-10-17T11:23:03.445Z,1.10
2022-10-17T11:26:56.287Z,1.30
2022-10-17T11:30:41.290Z,1.10
2022-10-17T11:34:31.133Z,1.10
2022-10-17T11:38:03.519Z,1.20
2022-10-17T11:41:55.197Z,1.10
2022-10-17T11:45:34.708Z,1.20
2022-10-17T11:49:32.148Z,1.10
2022-10-17T11:53:27.198Z,1.10
2022-10-17T11:57:14.077Z,1.50
2022-10-17T12:01:10.835Z,1.10
2022-10-17T12:05:15.383Z,1.00
2022-10-17T12:09:04.846Z,1.10
2022-10-17T12:12:49.959Z,1.20
2022-10-17T12:16:17.510Z,1.10
2022-10-17T12:20:16.516Z,1.50
2022-10-17T12:23:54.816Z,1.20
2022-10-17T12:27:48.336Z,1.30
2022-10-17T12:31:44.522Z,1.00
2022-10-17T12:35:33.388Z,1.10
2022-10-17T12:39:23.259Z,1.20
2022-10-17T12:43:33.062Z,1.00
2022-10-17T12:47:35.600Z,1.00
2022-10-17T12:55:18.168Z,1.20
2022-10-17T12:59:07.984Z,1.10
2022-10-17T13:02:57.695Z,1.10
2022-10-17T13:06:47.458Z,1.00
2022-10-17T13:10:32.399Z,1.00
2022-10-17T13:14:08.600Z,1.10
2022-10-17T13:18:03.986Z,1.30
2022-10-17T13:21:56.078Z,1.10
2022-10-17T13:25:37.601Z,1.40
2022-10-17T13:29:22.186Z,1.00
2022-10-17T13:33:17.866Z,1.90
2022-10-17T13:37:10.616Z,1.50
2022-10-17T13:40:48.110Z,1.10
2022-10-17T13:44:43.263Z,1.20
2022-10-17T13:48:23.242Z,1.10
2022-10-17T13:52:06.411Z,1.20
2022-10-17T13:56:15.784Z,1.20
2022-10-17T14:00:02.024Z,1.40
2022-10-17T14:03:48.483Z,1.20
2022-10-17T14:07:26.423Z,1.70
2022-10-17T14:11:18.786Z,1.20
2022-10-17T14:15:10.781Z,1.10
2022-10-17T14:19:06.867Z,1.10
2022-10-17T14:23:22.773Z,1.10
2022-10-17T14:27:12.799Z,1.70
2022-10-17T14:31:08.609Z,1.30
2022-10-17T14:35:17.775Z,1.00
2022-10-17T14:39:14.095Z,1.40
2022-10-17T14:43:03.854Z,1.00
2022-10-17T14:46:27.044Z,1.60
2022-10-17T14:50:19.258Z,1.40
2022-10-17T14:54:11.507Z,1.30
2022-10-17T14:58:03.866Z,1.10
2022-10-17T15:01:53.484Z,1.20
2022-10-17T15:05:43.250Z,1.50
2022-10-17T15:09:25.966Z,1.20
2022-10-17T15:13:27.050Z,1.00
2022-10-17T15:17:17.188Z,1.10
2022-10-17T15:21:25.697Z,1.00
2022-10-17T15:25:08.334Z,1.00
2022-10-17T15:28:50.378Z,1.30
2022-10-17T15:32:39.904Z,1.20
2022-10-17T15:36:19.776Z,1.00
2022-10-17T15:40:08.260Z,1.10
2022-10-17T15:43:50.809Z,2.20
2022-10-17T15:47:34.371Z,1.00
2022-10-17T15:51:07.343Z,1.10
2022-10-17T15:54:49.159Z,1.20
2022-10-17T15:58:39.997Z,1.40
2022-10-17T16:05:45.378Z,1.20
2022-10-17T16:09:35.066Z,1.20
2022-10-17T16:13:24.912Z,1.40
2022-10-17T16:17:08.711Z,1.00
2022-10-17T16:20:58.426Z,1.50
2022-10-17T16:24:47.924Z,1.40
2022-10-17T16:28:37.206Z,1.80
2022-10-17T16:32:27.510Z,1.50
2022-10-17T16:36:17.601Z,2.10
2022-10-17T16:40:07.225Z,1.00
2022-10-17T16:43:57.184Z,1.30
2022-10-17T16:47:36.138Z,1.80
2022-10-17T16:51:26.230Z,1.40
2022-10-17T16:55:15.943Z,1.80
2022-10-17T16:58:35.187Z,2.20
2022-10-17T17:02:24.494Z,1.90
2022-10-17T17:05:56.395Z,1.80
2022-10-17T17:09:29.015Z,1.70
2022-10-17T17:13:18.744Z,1.60
2022-10-17T17:17:19.469Z,3.00
2022-10-17T17:21:10.212Z,1.50
2022-10-17T17:24:45.228Z,1.90
2022-10-17T17:28:34.835Z,1.30
2022-10-17T17:32:24.689Z,2.00
2022-10-17T17:36:14.555Z,1.90
2022-10-17T17:40:04.546Z,2.30
2022-10-17T17:43:54.643Z,1.60
2022-10-17T17:47:24.260Z,1.70
2022-10-17T17:51:13.068Z,1.70
2022-10-17T17:55:02.883Z,2.20
2022-10-17T17:58:48.806Z,2.40
2022-10-17T18:02:28.713Z,2.80
2022-10-17T18:06:19.415Z,2.30
2022-10-17T18:09:21.030Z,2.40
2022-10-17T18:13:10.510Z,1.80
2022-10-17T18:16:38.593Z,2.40
2022-10-17T18:20:28.995Z,2.80
2022-10-17T18:24:01.583Z,4.40
2022-10-17T18:27:47.420Z,3.70
2022-10-17T18:31:32.644Z,2.10
2022-10-17T18:35:22.439Z,3.10
2022-10-17T18:39:12.734Z,3.50
2022-10-17T18:43:02.500Z,3.20
2022-10-17T18:46:51.250Z,3.30
2022-10-17T18:50:32.468Z,2.10
2022-10-17T18:54:22.334Z,2.70
2022-10-17T18:58:12.146Z,2.40
2022-10-17T19:02:04.764Z,3.60
2022-10-17T19:05:56.623Z,3.40
2022-10-17T19:09:38.577Z,3.20
2022-10-17T19:13:28.441Z,2.80
2022-10-17T19:17:21.213Z,2.20
2022-10-17T19:21:18.023Z,4.70
2022-10-17T19:25:10.613Z,2.90
2022-10-17T19:29:00.794Z,3.60
2022-10-17T19:32:49.759Z,4.80
2022-10-17T19:36:39.443Z,5.20
2022-10-17T19:40:11.810Z,3.50
2022-10-17T19:43:55.810Z,2.40
2022-10-17T19:47:45.764Z,5.10
2022-10-17T19:51:35.708Z,2.50
2022-10-17T19:55:25.742Z,2.70
2022-10-17T19:59:16.059Z,2.40
2022-10-17T20:02:55.416Z,2.20
2022-10-17T20:06:38.342Z,1.90
2022-10-17T20:10:26.662Z,2.00
2022-10-17T20:14:16.667Z,3.20
2022-10-17T20:17:52.114Z,5.00
2022-10-17T20:21:44.258Z,2.30
2022-10-17T20:25:33.873Z,3.40
2022-10-17T20:29:23.213Z,2.40
2022-10-17T20:32:55.918Z,4.30
2022-10-17T20:36:45.768Z,3.20
2022-10-17T20:40:36.022Z,3.40
2022-10-17T20:44:25.803Z,3.90
2022-10-17T20:48:15.583Z,3.40
2022-10-17T20:52:08.118Z,4.00
2022-10-17T20:55:42.955Z,2.00
2022-10-17T20:59:32.950Z,2.90
2022-10-17T21:03:16.348Z,2.40
2022-10-17T21:07:06.062Z,3.30
2022-10-17T21:10:48.542Z,2.10
2022-10-17T21:14:38.109Z,3.60
2022-10-17T21:18:27.848Z,2.40
2022-10-17T21:22:17.324Z,3.40
2022-10-17T21:26:07.218Z,3.70
2022-10-17T21:29:47.706Z,2.20
2022-10-17T21:33:26.445Z,2.00
2022-10-17T21:37:15.803Z,2.10
2022-10-17T21:41:06.190Z,1.90
2022-10-17T21:44:55.715Z,2.60
2022-10-17T21:48:45.360Z,1.90
2022-10-17T21:52:25.044Z,2.80
2022-10-17T21:56:14.620Z,2.00
2022-10-17T21:59:45.842Z,2.10
2022-10-17T22:03:28.190Z,1.30
2022-10-17T22:07:07.030Z,1.90
2022-10-17T22:10:56.771Z,3.40
2022-10-17T22:14:46.374Z,3.90
2022-10-17T22:18:36.446Z,1.50
2022-10-17T22:22:26.233Z,3.20
2022-10-17T22:26:08.354Z,2.90
2022-10-17T22:29:49.324Z,1.70
2022-10-17T22:33:38.910Z,3.10
2022-10-17T22:37:28.712Z,1.80
2022-10-17T22:41:18.890Z,2.40
2022-10-17T22:45:08.500Z,2.10
2022-10-17T22:48:41.064Z,2.80
2022-10-17T22:52:31.020Z,2.00
2022-10-17T22:56:08.138Z,2.50
2022-10-17T22:59:57.652Z,2.20
2022-10-17T23:03:33.713Z,2.30
2022-10-17T23:07:23.638Z,2.10
2022-10-17T23:11:13.274Z,1.30
2022-10-17T23:15:03.169Z,2.20
2022-10-17T23:18:44.638Z,3.30
2022-10-17T23:22:25.549Z,1.90
2022-10-17T23:26:15.208Z,1.80
2022-10-17T23:30:04.836Z,1.60
2022-10-17T23:33:46.284Z,1.70
2022-10-17T23:37:35.704Z,2.40
2022-10-17T23:41:07.139Z,3.00
2022-10-17T23:44:55.381Z,3.20
2022-10-17T23:48:45.121Z,2.00
2022-10-17T23:52:24.703Z,2.20
2022-10-17T23:56:14.393Z,3.20
2022-10-17T23:59:57.005Z,2.50
